sensor_id;sensor_type;location;lat;lon;timestamp;pressure;altitude;pressure_sealevel;temperature;humidity
28935;BME280;16044;52.726;-2.108;2023-02-18T00:01:14;100989.38;;;11.22;100.00
28935;BME280;16044;52.726;-2.108;2023-02-18T00:03:42;100978.16;;;11.17;100.00
28935;BME280;16044;52.726;-2.108;2023-02-18T00:08:44;100983.94;;;11.14;100.00
28935;BME280;16044;52.726;-2.108;2023-02-18T00:11:12;100971.06;;;11.16;100.00
28935;BME280;16044;52.726;-2.108;2023-02-18T00:13:40;100960.38;;;11.14;100.00
28935;BME280;16044;52.726;-2.108;2023-02-18T00:16:09;100950.38;;;11.06;100.00
28935;BME280;16044;52.726;-2.108;2023-02-18T00:18:39;100944.59;;;11.09;100.00
28935;BME280;16044;52.726;-2.108;2023-02-18T00:21:07;100940.69;;;11.04;100.00
28935;BME280;16044;52.726;-2.108;2023-02-18T00:23:35;100946.97;;;11.04;100.00
28935;BME280;16044;52.726;-2.108;2023-02-18T00:26:08;100941.19;;;11.07;100.00
28935;BME280;16044;52.726;-2.108;2023-02-18T00:28:37;100934.44;;;10.95;100.00
28935;BME280;16044;52.726;-2.108;2023-02-18T00:31:06;100928.47;;;11.00;100.00
28935;BME280;16044;52.726;-2.108;2023-02-18T00:33:34;100919.84;;;10.88;100.00
28935;BME280;16044;52.726;-2.108;2023-02-18T00:36:03;100929.84;;;10.96;100.00
28935;BME280;16044;52.726;-2.108;2023-02-18T00:38:32;100923.91;;;10.84;100.00
28935;BME280;16044;52.726;-2.108;2023-02-18T00:41:00;100912.72;;;10.87;100.00
28935;BME280;16044;52.726;-2.108;2023-02-18T00:43:27;100902.72;;;10.87;100.00
28935;BME280;16044;52.726;-2.108;2023-02-18T00:45:54;100908.66;;;10.91;100.00
28935;BME280;16044;52.726;-2.108;2023-02-18T00:48:21;100907.63;;;10.92;100.00
28935;BME280;16044;52.726;-2.108;2023-02-18T00:50:48;100906.94;;;10.90;100.00
28935;BME280;16044;52.726;-2.108;2023-02-18T00:53:15;100899.69;;;10.99;100.00
28935;BME280;16044;52.726;-2.108;2023-02-18T00:55:43;100893.38;;;10.98;100.00
28935;BME280;16044;52.726;-2.108;2023-02-18T00:58:13;100894.41;;;10.97;100.00
28935;BME280;16044;52.726;-2.108;2023-02-18T01:00:41;100907.63;;;10.92;100.00
28935;BME280;16044;52.726;-2.108;2023-02-18T01:03:08;100896.63;;;10.85;100.00
28935;BME280;16044;52.726;-2.108;2023-02-18T01:05:36;100904.06;;;10.91;99.69
28935;BME280;16044;52.726;-2.108;2023-02-18T01:08:05;100891.34;;;10.92;99.08
28935;BME280;16044;52.726;-2.108;2023-02-18T01:10:33;100896.47;;;10.87;98.83
28935;BME280;16044;52.726;-2.108;2023-02-18T01:13:01;100907.47;;;10.85;98.42
28935;BME280;16044;52.726;-2.108;2023-02-18T01:15:30;100897.47;;;10.86;98.13
28935;BME280;16044;52.726;-2.108;2023-02-18T01:17:57;100894.06;;;10.84;97.69
28935;BME280;16044;52.726;-2.108;2023-02-18T01:20:25;100894.91;;;10.84;97.47
28935;BME280;16044;52.726;-2.108;2023-02-18T01:22:52;100907.31;;;10.87;96.64
28935;BME280;16044;52.726;-2.108;2023-02-18T01:25:19;100905.91;;;10.83;96.60
28935;BME280;16044;52.726;-2.108;2023-02-18T01:27:46;100900.34;;;10.76;96.41
28935;BME280;16044;52.726;-2.108;2023-02-18T01:30:15;100897.78;;;10.75;96.36
28935;BME280;16044;52.726;-2.108;2023-02-18T01:32:43;100893.56;;;10.72;96.60
28935;BME280;16044;52.726;-2.108;2023-02-18T01:35:13;100897.28;;;10.79;95.67
28935;BME280;16044;52.726;-2.108;2023-02-18T01:37:42;100888.47;;;10.69;96.04
28935;BME280;16044;52.726;-2.108;2023-02-18T01:40:13;100878.13;;;10.72;95.45
28935;BME280;16044;52.726;-2.108;2023-02-18T01:42:42;100884.03;;;10.68;94.45
28935;BME280;16044;52.726;-2.108;2023-02-18T01:48:22;100879.34;;;10.70;93.38
28935;BME280;16044;52.726;-2.108;2023-02-18T01:50:58;100877.06;;;10.49;93.44
28935;BME280;16044;52.726;-2.108;2023-02-18T01:53:35;100883.88;;;10.53;93.07
28935;BME280;16044;52.726;-2.108;2023-02-18T01:56:13;100878.47;;;10.53;92.82
28935;BME280;16044;52.726;-2.108;2023-02-18T01:58:44;100879.63;;;10.50;92.71
28935;BME280;16044;52.726;-2.108;2023-02-18T02:01:11;100882.16;;;10.52;92.14
28935;BME280;16044;52.726;-2.108;2023-02-18T02:03:38;100880.81;;;10.48;92.00
28935;BME280;16044;52.726;-2.108;2023-02-18T02:06:14;100881.13;;;10.45;91.53
28935;BME280;16044;52.726;-2.108;2023-02-18T02:08:44;100877.41;;;10.46;91.10
28935;BME280;16044;52.726;-2.108;2023-02-18T02:28:41;100834.38;;;10.43;90.05
28935;BME280;16044;52.726;-2.108;2023-02-18T02:37:41;100841.31;;;10.37;89.56
28935;BME280;16044;52.726;-2.108;2023-02-18T02:46:02;100823.91;;;10.40;88.73
28935;BME280;16044;52.726;-2.108;2023-02-18T02:48:53;100819.84;;;10.44;88.34
28935;BME280;16044;52.726;-2.108;2023-02-18T02:54:11;100824.22;;;10.45;88.02
28935;BME280;16044;52.726;-2.108;2023-02-18T02:56:39;100804.72;;;10.41;88.65
28935;BME280;16044;52.726;-2.108;2023-02-18T02:59:13;100803.72;;;10.42;88.60
28935;BME280;16044;52.726;-2.108;2023-02-18T03:02:17;100797.13;;;10.37;88.69
28935;BME280;16044;52.726;-2.108;2023-02-18T03:11:08;100777.09;;;10.29;88.97
28935;BME280;16044;52.726;-2.108;2023-02-18T03:16:49;100784.19;;;10.22;89.13
28935;BME280;16044;52.726;-2.108;2023-02-18T03:19:36;100783.03;;;10.25;89.47
28935;BME280;16044;52.726;-2.108;2023-02-18T03:22:11;100781.16;;;10.17;90.27
28935;BME280;16044;52.726;-2.108;2023-02-18T03:24:44;100783.03;;;10.25;90.10
28935;BME280;16044;52.726;-2.108;2023-02-18T03:28:08;100799.59;;;10.30;90.23
28935;BME280;16044;52.726;-2.108;2023-02-18T03:30:41;100780.34;;;10.33;89.98
28935;BME280;16044;52.726;-2.108;2023-02-18T03:33:15;100773.41;;;10.30;90.26
28935;BME280;16044;52.726;-2.108;2023-02-18T03:35:45;100777.47;;;10.34;90.08
28935;BME280;16044;52.726;-2.108;2023-02-18T03:38:27;100780.03;;;10.36;90.20
28935;BME280;16044;52.726;-2.108;2023-02-18T03:40:58;100780.88;;;10.37;90.61
28935;BME280;16044;52.726;-2.108;2023-02-18T03:43:24;100785.75;;;10.41;90.72
28935;BME280;16044;52.726;-2.108;2023-02-18T03:45:51;100791.72;;;10.37;91.34
28935;BME280;16044;52.726;-2.108;2023-02-18T03:48:19;100785.59;;;10.43;91.57
28935;BME280;16044;52.726;-2.108;2023-02-18T03:50:45;100786.44;;;10.43;91.63
28935;BME280;16044;52.726;-2.108;2023-02-18T03:53:12;100787.63;;;10.41;92.17
28935;BME280;16044;52.726;-2.108;2023-02-18T03:55:39;100785.44;;;10.36;92.67
28935;BME280;16044;52.726;-2.108;2023-02-18T03:58:06;100793.72;;;10.43;92.32
28935;BME280;16044;52.726;-2.108;2023-02-18T04:00:33;100785.78;;;10.33;93.45
28935;BME280;16044;52.726;-2.108;2023-02-18T04:03:00;100783.25;;;10.40;93.02
28935;BME280;16044;52.726;-2.108;2023-02-18T04:05:27;100783.56;;;10.37;93.22
28935;BME280;16044;52.726;-2.108;2023-02-18T04:07:54;100780.69;;;10.38;93.81
28935;BME280;16044;52.726;-2.108;2023-02-18T04:10:21;100781.72;;;10.37;93.89
28935;BME280;16044;52.726;-2.108;2023-02-18T04:12:48;100782.91;;;10.34;94.18
28935;BME280;16044;52.726;-2.108;2023-02-18T04:15:15;100776.44;;;10.36;94.34
28935;BME280;16044;52.726;-2.108;2023-02-18T04:17:42;100788.16;;;10.36;94.59
28935;BME280;16044;52.726;-2.108;2023-02-18T04:20:09;100788.31;;;10.34;95.41
28935;BME280;16044;52.726;-2.108;2023-02-18T04:22:37;100773.53;;;10.29;96.11
28935;BME280;16044;52.726;-2.108;2023-02-18T04:25:04;100790.66;;;10.29;97.20
28935;BME280;16044;52.726;-2.108;2023-02-18T04:27:31;100794.06;;;10.31;96.95
28935;BME280;16044;52.726;-2.108;2023-02-18T04:29:58;100787.63;;;10.32;97.62
28935;BME280;16044;52.726;-2.108;2023-02-18T04:32:26;100795.94;;;10.31;98.93
28935;BME280;16044;52.726;-2.108;2023-02-18T04:34:52;100799.47;;;10.31;99.19
28935;BME280;16044;52.726;-2.108;2023-02-18T04:37:19;100792.84;;;10.26;99.85
28935;BME280;16044;52.726;-2.108;2023-02-18T04:39:46;100781.31;;;10.24;100.00
28935;BME280;16044;52.726;-2.108;2023-02-18T04:42:13;100783.19;;;10.23;100.00
28935;BME280;16044;52.726;-2.108;2023-02-18T04:44:40;100784.19;;;10.22;100.00
28935;BME280;16044;52.726;-2.108;2023-02-18T04:47:07;100772.88;;;10.27;100.00
28935;BME280;16044;52.726;-2.108;2023-02-18T04:49:34;100783.03;;;10.25;100.00
28935;BME280;16044;52.726;-2.108;2023-02-18T04:52:01;100790.81;;;10.20;100.00
28935;BME280;16044;52.726;-2.108;2023-02-18T04:54:29;100785.91;;;10.23;100.00
28935;BME280;16044;52.726;-2.108;2023-02-18T04:56:56;100791.31;;;10.23;100.00
28935;BME280;16044;52.726;-2.108;2023-02-18T04:59:23;100796.06;;;10.21;100.00
28935;BME280;16044;52.726;-2.108;2023-02-18T05:01:50;100786.06;;;10.22;100.00
28935;BME280;16044;52.726;-2.108;2023-02-18T05:04:17;100788.09;;;10.20;100.00
28935;BME280;16044;52.726;-2.108;2023-02-18T05:06:45;100791.63;;;10.20;100.00
28935;BME280;16044;52.726;-2.108;2023-02-18T05:09:12;100790.81;;;10.20;100.00
28935;BME280;16044;52.726;-2.108;2023-02-18T05:11:39;100789.78;;;10.12;100.00
28935;BME280;16044;52.726;-2.108;2023-02-18T05:14:06;100792.66;;;10.19;100.00
28935;BME280;16044;52.726;-2.108;2023-02-18T05:16:33;100784.53;;;10.19;100.00
28935;BME280;16044;52.726;-2.108;2023-02-18T05:19:00;100790.97;;;10.10;100.00
28935;BME280;16044;52.726;-2.108;2023-02-18T05:21:27;100786.56;;;10.17;100.00
28935;BME280;16044;52.726;-2.108;2023-02-18T05:23:54;100794.50;;;10.19;100.00
28935;BME280;16044;52.726;-2.108;2023-02-18T05:26:21;100792.84;;;10.18;100.00
28935;BME280;16044;52.726;-2.108;2023-02-18T05:28:48;100804.19;;;10.21;100.00
28935;BME280;16044;52.726;-2.108;2023-02-18T05:31:16;100819.25;;;10.24;100.00
28935;BME280;16044;52.726;-2.108;2023-02-18T05:33:43;100809.94;;;10.18;100.00
28935;BME280;16044;52.726;-2.108;2023-02-18T05:36:10;100798.56;;;10.14;100.00
28935;BME280;16044;52.726;-2.108;2023-02-18T05:38:36;100802.00;;;10.25;100.00
28935;BME280;16044;52.726;-2.108;2023-02-18T05:41:03;100805.53;;;10.25;100.00
28935;BME280;16044;52.726;-2.108;2023-02-18T05:43:30;100805.19;;;10.12;100.00
28935;BME280;16044;52.726;-2.108;2023-02-18T05:46:17;100808.94;;;10.27;100.00
28935;BME280;16044;52.726;-2.108;2023-02-18T05:48:44;100797.56;;;10.24;100.00
28935;BME280;16044;52.726;-2.108;2023-02-18T05:51:11;100807.22;;;10.26;100.00
28935;BME280;16044;52.726;-2.108;2023-02-18T05:53:38;100814.06;;;10.30;100.00
28935;BME280;16044;52.726;-2.108;2023-02-18T05:56:06;100806.59;;;10.32;100.00
28935;BME280;16044;52.726;-2.108;2023-02-18T05:58:33;100807.75;;;10.30;100.00
28935;BME280;16044;52.726;-2.108;2023-02-18T06:01:00;100807.75;;;10.30;100.00
28935;BME280;16044;52.726;-2.108;2023-02-18T06:03:27;100802.03;;;10.33;100.00
28935;BME280;16044;52.726;-2.108;2023-02-18T06:05:54;100800.16;;;10.33;100.00
28935;BME280;16044;52.726;-2.108;2023-02-18T06:08:21;100792.91;;;10.34;100.00
28935;BME280;16044;52.726;-2.108;2023-02-18T06:10:48;100783.22;;;10.31;100.00
28935;BME280;16044;52.726;-2.108;2023-02-18T06:13:15;100786.06;;;10.30;100.00
28935;BME280;16044;52.726;-2.108;2023-02-18T06:15:42;100778.44;;;10.25;100.00
28935;BME280;16044;52.726;-2.108;2023-02-18T06:18:09;100774.25;;;10.31;100.00
28935;BME280;16044;52.726;-2.108;2023-02-18T06:20:38;100772.19;;;10.25;100.00
28935;BME280;16044;52.726;-2.108;2023-02-18T06:23:06;100773.88;;;10.26;100.00
28935;BME280;16044;52.726;-2.108;2023-02-18T06:25:34;100773.88;;;10.26;100.00
28935;BME280;16044;52.726;-2.108;2023-02-18T06:28:01;100773.03;;;10.25;100.00
28935;BME280;16044;52.726;-2.108;2023-02-18T06:30:28;100781.16;;;10.17;100.00
28935;BME280;16044;52.726;-2.108;2023-02-18T06:32:54;100776.41;;;10.19;100.00
28935;BME280;16044;52.726;-2.108;2023-02-18T06:35:21;100776.22;;;10.21;100.00
28935;BME280;16044;52.726;-2.108;2023-02-18T06:37:48;100780.81;;;10.20;100.00
28935;BME280;16044;52.726;-2.108;2023-02-18T06:40:15;100777.25;;;10.20;100.00
28935;BME280;16044;52.726;-2.108;2023-02-18T06:42:43;100782.69;;;10.11;100.00
28935;BME280;16044;52.726;-2.108;2023-02-18T06:45:10;100782.31;;;10.14;100.00
28935;BME280;16044;52.726;-2.108;2023-02-18T06:47:38;100784.50;;;10.11;100.00
28935;BME280;16044;52.726;-2.108;2023-02-18T06:50:05;100798.94;;;10.11;100.00
28935;BME280;16044;52.726;-2.108;2023-02-18T06:52:33;100792.63;;;10.11;100.00
28935;BME280;16044;52.726;-2.108;2023-02-18T06:55:00;100802.31;;;10.13;100.00
28935;BME280;16044;52.726;-2.108;2023-02-18T06:57:26;100797.06;;;10.12;100.00
28935;BME280;16044;52.726;-2.108;2023-02-18T06:59:53;100801.78;;;10.10;100.00
28935;BME280;16044;52.726;-2.108;2023-02-18T07:02:20;100792.47;;;10.12;100.00
28935;BME280;16044;52.726;-2.108;2023-02-18T07:04:47;100786.56;;;10.17;100.00
28935;BME280;16044;52.726;-2.108;2023-02-18T07:07:14;100787.41;;;10.18;100.00
28935;BME280;16044;52.726;-2.108;2023-02-18T07:09:41;100786.56;;;10.17;100.00
28935;BME280;16044;52.726;-2.108;2023-02-18T07:12:08;100799.78;;;10.20;100.00
28935;BME280;16044;52.726;-2.108;2023-02-18T07:14:35;100800.13;;;10.25;100.00
28935;BME280;16044;52.726;-2.108;2023-02-18T07:17:02;100808.25;;;10.25;100.00
28935;BME280;16044;52.726;-2.108;2023-02-18T07:19:29;100800.28;;;10.24;100.00
28935;BME280;16044;52.726;-2.108;2023-02-18T07:21:55;100804.88;;;10.23;100.00
28935;BME280;16044;52.726;-2.108;2023-02-18T07:24:23;100808.63;;;10.30;100.00
28935;BME280;16044;52.726;-2.108;2023-02-18T07:26:50;100812.03;;;10.32;100.00
28935;BME280;16044;52.726;-2.108;2023-02-18T07:29:17;100804.34;;;10.28;100.00
28935;BME280;16044;52.726;-2.108;2023-02-18T07:31:44;100814.56;;;10.34;100.00
28935;BME280;16044;52.726;-2.108;2023-02-18T07:34:11;100814.06;;;10.30;100.00
28935;BME280;16044;52.726;-2.108;2023-02-18T07:36:38;100805.56;;;10.33;100.00
28935;BME280;16044;52.726;-2.108;2023-02-18T07:39:05;100815.56;;;10.41;100.00
28935;BME280;16044;52.726;-2.108;2023-02-18T07:41:32;100816.44;;;10.42;100.00
28935;BME280;16044;52.726;-2.108;2023-02-18T07:43:59;100818.13;;;10.43;100.00
28935;BME280;16044;52.726;-2.108;2023-02-18T07:46:26;100814.75;;;10.41;100.00
28935;BME280;16044;52.726;-2.108;2023-02-18T07:48:53;100813.53;;;10.43;100.00
28935;BME280;16044;52.726;-2.108;2023-02-18T07:51:19;100812.38;;;10.46;100.00
28935;BME280;16044;52.726;-2.108;2023-02-18T07:53:46;100818.81;;;10.45;100.00
28935;BME280;16044;52.726;-2.108;2023-02-18T07:56:13;100828.63;;;10.54;100.00
28935;BME280;16044;52.726;-2.108;2023-02-18T07:58:40;100823.56;;;10.59;100.00
28935;BME280;16044;52.726;-2.108;2023-02-18T08:01:10;100823.41;;;10.61;100.00
28935;BME280;16044;52.726;-2.108;2023-02-18T08:03:38;100818.66;;;10.63;100.00
28935;BME280;16044;52.726;-2.108;2023-02-18T08:06:06;100803.56;;;10.60;100.00
28935;BME280;16044;52.726;-2.108;2023-02-18T08:08:34;100806.44;;;10.50;100.00
28935;BME280;16044;52.726;-2.108;2023-02-18T08:11:02;100817.63;;;10.64;100.00
28935;BME280;16044;52.726;-2.108;2023-02-18T08:13:44;100816.47;;;10.66;100.00
28935;BME280;16044;52.726;-2.108;2023-02-18T08:16:13;100819.50;;;10.71;100.00
28935;BME280;16044;52.726;-2.108;2023-02-18T08:18:40;100829.34;;;10.72;100.00
28935;BME280;16044;52.726;-2.108;2023-02-18T08:21:07;100818.31;;;10.82;100.00
28935;BME280;16044;52.726;-2.108;2023-02-18T08:23:35;100811.69;;;10.77;100.00
28935;BME280;16044;52.726;-2.108;2023-02-18T08:26:02;100804.59;;;10.84;100.00
28935;BME280;16044;52.726;-2.108;2023-02-18T08:28:29;100802.88;;;10.83;100.00
28935;BME280;16044;52.726;-2.108;2023-02-18T08:30:57;100806.25;;;10.85;100.00
28935;BME280;16044;52.726;-2.108;2023-02-18T08:33:24;100793.75;;;10.84;100.00
28935;BME280;16044;52.726;-2.108;2023-02-18T08:35:52;100799.84;;;10.86;100.00
28935;BME280;16044;52.726;-2.108;2023-02-18T08:38:22;100813.03;;;10.81;100.00
28935;BME280;16044;52.726;-2.108;2023-02-18T08:40:50;100809.81;;;10.77;100.00
28935;BME280;16044;52.726;-2.108;2023-02-18T08:43:27;100820.66;;;10.77;100.00
28935;BME280;16044;52.726;-2.108;2023-02-18T08:45:56;100813.56;;;10.68;100.00
28935;BME280;16044;52.726;-2.108;2023-02-18T08:48:28;100813.91;;;10.73;100.00
28935;BME280;16044;52.726;-2.108;2023-02-18T08:50:55;100820.53;;;10.70;100.00
28935;BME280;16044;52.726;-2.108;2023-02-18T08:53:22;100814.41;;;10.77;100.00
28935;BME280;16044;52.726;-2.108;2023-02-18T08:55:49;100813.72;;;10.83;100.00
28935;BME280;16044;52.726;-2.108;2023-02-18T08:58:16;100814.06;;;10.88;100.00
28935;BME280;16044;52.726;-2.108;2023-02-18T09:00:45;100797.78;;;10.88;100.00
28935;BME280;16044;52.726;-2.108;2023-02-18T09:03:13;100801.53;;;10.95;100.00
28935;BME280;16044;52.726;-2.108;2023-02-18T09:05:41;100813.72;;;10.99;100.00
28935;BME280;16044;52.726;-2.108;2023-02-18T09:08:08;100817.94;;;11.02;100.00
28935;BME280;16044;52.726;-2.108;2023-02-18T09:10:35;100822.84;;;10.98;100.00
28935;BME280;16044;52.726;-2.108;2023-02-18T09:13:02;100834.06;;;11.11;100.00
28935;BME280;16044;52.726;-2.108;2023-02-18T09:15:30;100824.00;;;11.28;100.00
28935;BME280;16044;52.726;-2.108;2023-02-18T09:17:58;100822.44;;;11.42;100.00
28935;BME280;16044;52.726;-2.108;2023-02-18T09:20:25;100821.91;;;11.47;100.00
28935;BME280;16044;52.726;-2.108;2023-02-18T09:22:53;100820.53;;;11.51;100.00
28935;BME280;16044;52.726;-2.108;2023-02-18T09:25:22;100804.94;;;11.53;100.00
28935;BME280;16044;52.726;-2.108;2023-02-18T09:27:50;100807.13;;;11.58;99.30
28935;BME280;16044;52.726;-2.108;2023-02-18T09:30:17;100806.78;;;11.61;98.49
28935;BME280;16044;52.726;-2.108;2023-02-18T09:32:44;100822.03;;;11.62;97.15
28935;BME280;16044;52.726;-2.108;2023-02-18T09:35:11;100806.06;;;11.67;96.88
28935;BME280;16044;52.726;-2.108;2023-02-18T09:37:38;100804.03;;;11.69;96.03
28935;BME280;16044;52.726;-2.108;2023-02-18T09:40:06;100821.66;;;11.73;95.59
28935;BME280;16044;52.726;-2.108;2023-02-18T09:42:34;100828.78;;;11.74;95.13
28935;BME280;16044;52.726;-2.108;2023-02-18T09:45:06;100821.16;;;11.78;94.11
28935;BME280;16044;52.726;-2.108;2023-02-18T09:47:36;100814.84;;;11.77;94.40
28935;BME280;16044;52.726;-2.108;2023-02-18T09:50:26;100818.56;;;11.84;94.18
28935;BME280;16044;52.726;-2.108;2023-02-18T09:52:58;100827.75;;;11.83;92.21
28935;BME280;16044;52.726;-2.108;2023-02-18T09:55:35;100818.56;;;11.84;92.41
28935;BME280;16044;52.726;-2.108;2023-02-18T09:58:13;100813.63;;;11.88;92.46
28935;BME280;16044;52.726;-2.108;2023-02-18T10:00:45;100817.16;;;11.88;91.63
28935;BME280;16044;52.726;-2.108;2023-02-18T10:03:39;100820.41;;;11.92;91.18
28935;BME280;16044;52.726;-2.108;2023-02-18T10:06:21;100816.84;;;11.92;90.95
28935;BME280;16044;52.726;-2.108;2023-02-18T10:08:53;100821.25;;;11.93;90.91
28935;BME280;16044;52.726;-2.108;2023-02-18T10:11:28;100824.28;;;11.98;89.65
28935;BME280;16044;52.726;-2.108;2023-02-18T10:13:58;100825.81;;;12.00;90.42
28935;BME280;16044;52.726;-2.108;2023-02-18T10:16:26;100831.03;;;12.10;90.20
28935;BME280;16044;52.726;-2.108;2023-02-18T10:18:59;100837.63;;;12.16;90.52
28935;BME280;16044;52.726;-2.108;2023-02-18T10:21:33;100854.41;;;12.19;91.00
28935;BME280;16044;52.726;-2.108;2023-02-18T10:24:31;100856.94;;;12.21;89.82
28935;BME280;16044;52.726;-2.108;2023-02-18T10:27:00;100858.47;;;12.23;89.20
28935;BME280;16044;52.726;-2.108;2023-02-18T10:29:29;100860.13;;;12.33;89.32
28935;BME280;16044;52.726;-2.108;2023-02-18T10:32:15;100858.56;;;12.38;88.30
28935;BME280;16044;52.726;-2.108;2023-02-18T10:34:48;100864.94;;;12.45;87.73
28935;BME280;16044;52.726;-2.108;2023-02-18T10:46:08;100878.38;;;12.47;86.83
28935;BME280;16044;52.726;-2.108;2023-02-18T10:51:49;100883.44;;;12.50;85.75
28935;BME280;16044;52.726;-2.108;2023-02-18T10:54:22;100881.97;;;12.39;86.05
28935;BME280;16044;52.726;-2.108;2023-02-18T10:56:52;100879.44;;;12.38;86.63
28935;BME280;16044;52.726;-2.108;2023-02-18T10:59:30;100889.22;;;12.47;86.59
28935;BME280;16044;52.726;-2.108;2023-02-18T11:02:03;100888.25;;;12.40;86.58
28935;BME280;16044;52.726;-2.108;2023-02-18T11:04:44;100890.13;;;12.39;86.73
28935;BME280;16044;52.726;-2.108;2023-02-18T11:07:15;100895.75;;;12.38;87.43
28935;BME280;16044;52.726;-2.108;2023-02-18T11:09:49;100901.56;;;12.35;88.03
28935;BME280;16044;52.726;-2.108;2023-02-18T11:12:25;100898.97;;;12.41;88.40
28935;BME280;16044;52.726;-2.108;2023-02-18T11:15:15;100894.56;;;12.40;88.00
28935;BME280;16044;52.726;-2.108;2023-02-18T11:17:52;100892.00;;;12.39;88.06
28935;BME280;16044;52.726;-2.108;2023-02-18T11:22:59;100879.84;;;12.58;88.05
28935;BME280;16044;52.726;-2.108;2023-02-18T11:26:15;100887.44;;;12.62;87.88
28935;BME280;16044;52.726;-2.108;2023-02-18T11:28:44;100883.03;;;12.61;87.69
28935;BME280;16044;52.726;-2.108;2023-02-18T11:31:21;100883.69;;;12.63;87.32
28935;BME280;16044;52.726;-2.108;2023-02-18T11:33:51;100890.47;;;12.67;87.20
28935;BME280;16044;52.726;-2.108;2023-02-18T11:36:28;100887.91;;;12.66;86.38
28935;BME280;16044;52.726;-2.108;2023-02-18T11:39:02;100889.88;;;12.57;85.70
28935;BME280;16044;52.726;-2.108;2023-02-18T11:41:39;100887.44;;;12.62;85.70
28935;BME280;16044;52.726;-2.108;2023-02-18T11:47:02;100877.63;;;12.53;86.20
28935;BME280;16044;52.726;-2.108;2023-02-18T11:49:33;100878.63;;;12.60;84.80
28935;BME280;16044;52.726;-2.108;2023-02-18T11:52:19;100872.03;;;12.55;85.06
28935;BME280;16044;52.726;-2.108;2023-02-18T11:57:35;100879.00;;;12.57;83.49
28935;BME280;16044;52.726;-2.108;2023-02-18T12:00:15;100882.88;;;12.63;83.35
28935;BME280;16044;52.726;-2.108;2023-02-18T12:02:43;100882.47;;;12.66;83.61
28935;BME280;16044;52.726;-2.108;2023-02-18T12:05:15;100873.13;;;12.68;83.45
28935;BME280;16044;52.726;-2.108;2023-02-18T12:08:23;100866.78;;;12.76;83.36
28935;BME280;16044;52.726;-2.108;2023-02-18T12:10:57;100867.13;;;12.73;82.94
28935;BME280;16044;52.726;-2.108;2023-02-18T12:16:32;100873.81;;;12.71;82.19
28935;BME280;16044;52.726;-2.108;2023-02-18T12:19:30;100883.09;;;12.76;82.74
28935;BME280;16044;52.726;-2.108;2023-02-18T12:27:55;100884.25;;;12.82;81.83
28935;BME280;16044;52.726;-2.108;2023-02-18T12:31:04;100896.47;;;12.86;81.31
28935;BME280;16044;52.726;-2.108;2023-02-18T12:33:53;100886.72;;;12.92;79.12
28935;BME280;16044;52.726;-2.108;2023-02-18T12:37:00;100888.78;;;12.90;77.77
28935;BME280;16044;52.726;-2.108;2023-02-18T12:51:06;100897.31;;;13.24;78.32
28935;BME280;16044;52.726;-2.108;2023-02-18T12:57:33;100891.63;;;13.34;78.13
28935;BME280;16044;52.726;-2.108;2023-02-18T13:05:31;100880.44;;;13.29;76.63
28935;BME280;16044;52.726;-2.108;2023-02-18T13:11:18;100878.34;;;13.16;75.93
28935;BME280;16044;52.726;-2.108;2023-02-18T13:14:13;100868.31;;;13.17;76.12
28935;BME280;16044;52.726;-2.108;2023-02-18T13:16:46;100864.56;;;13.18;76.00
28935;BME280;16044;52.726;-2.108;2023-02-18T13:19:30;100870.06;;;13.10;77.03
28935;BME280;16044;52.726;-2.108;2023-02-18T13:22:04;100878.97;;;13.03;76.75
28935;BME280;16044;52.726;-2.108;2023-02-18T13:24:34;100875.50;;;13.10;76.56
28935;BME280;16044;52.726;-2.108;2023-02-18T13:27:17;100866.75;;;12.99;77.22
28935;BME280;16044;52.726;-2.108;2023-02-18T13:30:27;100880.53;;;12.98;76.91
28935;BME280;16044;52.726;-2.108;2023-02-18T13:33:20;100878.00;;;12.96;76.50
28935;BME280;16044;52.726;-2.108;2023-02-18T13:39:03;100871.72;;;12.96;75.62
28935;BME280;16044;52.726;-2.108;2023-02-18T13:41:40;100871.53;;;12.97;76.32
28935;BME280;16044;52.726;-2.108;2023-02-18T13:46:48;100868.56;;;13.07;74.78
28935;BME280;16044;52.726;-2.108;2023-02-18T13:49:31;100868.75;;;13.05;73.80
28935;BME280;16044;52.726;-2.108;2023-02-18T13:52:01;100876.16;;;13.12;74.06
28935;BME280;16044;52.726;-2.108;2023-02-18T13:54:33;100872.44;;;13.13;73.86
28935;BME280;16044;52.726;-2.108;2023-02-18T13:57:18;100867.47;;;13.16;74.59
28935;BME280;16044;52.726;-2.108;2023-02-18T13:59:58;100872.25;;;13.14;74.19
28935;BME280;16044;52.726;-2.108;2023-02-18T14:02:34;100864.28;;;13.27;73.57
28935;BME280;16044;52.726;-2.108;2023-02-18T14:25:54;100829.44;;;13.08;73.18
28935;BME280;16044;52.726;-2.108;2023-02-18T14:31:27;100835.44;;;13.03;71.89
28935;BME280;16044;52.726;-2.108;2023-02-18T14:37:15;100841.00;;;12.87;71.37
28935;BME280;16044;52.726;-2.108;2023-02-18T14:46:02;100834.25;;;12.83;71.55
28935;BME280;16044;52.726;-2.108;2023-02-18T14:51:32;100829.63;;;12.83;72.27
28935;BME280;16044;52.726;-2.108;2023-02-18T14:54:04;100825.31;;;12.74;71.94
28935;BME280;16044;52.726;-2.108;2023-02-18T14:56:37;100847.75;;;12.76;71.30
28935;BME280;16044;52.726;-2.108;2023-02-18T14:59:19;100843.22;;;12.68;70.77
28935;BME280;16044;52.726;-2.108;2023-02-18T15:01:46;100846.47;;;12.64;70.90
28935;BME280;16044;52.726;-2.108;2023-02-18T15:04:14;100843.56;;;12.65;71.69
28935;BME280;16044;52.726;-2.108;2023-02-18T15:06:41;100837.16;;;12.58;71.66
28935;BME280;16044;52.726;-2.108;2023-02-18T15:09:20;100842.59;;;12.58;71.45
28935;BME280;16044;52.726;-2.108;2023-02-18T15:11:51;100859.75;;;12.59;71.40
28935;BME280;16044;52.726;-2.108;2023-02-18T15:14:41;100847.94;;;12.52;71.74
28935;BME280;16044;52.726;-2.108;2023-02-18T15:17:21;100833.53;;;12.43;70.74
28935;BME280;16044;52.726;-2.108;2023-02-18T15:19:55;100836.19;;;12.51;70.69